Time;durP1;ratioP1;P1;durP2;ratioP2;P2;SDS_P1;SDS_P2;PMS_P1;PMS_P2;Temp;Humidity;BMP_temperature;BMP_pressure;BME280_temperature;BME280_humidity;BME280_pressure;Samples;Min_cycle;Max_cycle;Signal;HPM_P1;HPM_P2
2022/02/14 00:03:30;;;;;;;3.10;1.58;;;17.50;60.30;;;;;;10416708;28;20037;-58
2022/02/14 00:08:31;;;;;;;2.88;1.50;;;17.50;60.30;;;;;;10416428;28;20029;-58
2022/02/14 00:13:31;;;;;;;3.13;1.65;;;17.50;60.20;;;;;;10431619;28;20029;-59
2022/02/14 00:18:32;;;;;;;3.03;1.83;;;17.60;60.20;;;;;;10414687;28;20120;-58
2022/02/14 00:23:33;;;;;;;1.60;1.23;;;17.50;60.10;;;;;;10431256;28;20033;-58
2022/02/14 00:28:33;;;;;;;2.53;1.75;;;17.60;60.20;;;;;;10398157;28;20436;-58
2022/02/14 00:33:34;;;;;;;2.92;1.52;;;17.60;60.10;;;;;;10415321;28;20148;-58
2022/02/14 00:38:35;;;;;;;3.20;1.98;;;17.50;60.00;;;;;;10414055;28;20120;-59
2022/02/14 00:43:36;;;;;;;2.83;1.52;;;17.50;60.70;;;;;;10415242;28;20108;-58
2022/02/14 00:48:37;;;;;;;1.85;1.30;;;17.50;59.90;;;;;;10413850;28;20041;-58
2022/02/14 00:53:37;;;;;;;3.30;2.47;;;17.60;59.90;;;;;;10414588;28;20116;-58
2022/02/14 00:58:38;;;;;;;2.30;1.63;;;17.60;59.90;;;;;;10429664;28;20037;-58
2022/02/14 01:03:39;;;;;;;1.95;1.40;;;17.60;59.90;;;;;;10429690;28;20122;-58
2022/02/14 01:08:40;;;;;;;2.25;1.40;;;17.60;59.80;;;;;;10413333;28;20041;-58
2022/02/14 01:13:41;;;;;;;3.38;1.80;;;17.60;59.70;;;;;;10414088;28;20061;-59
2022/02/14 01:18:41;;;;;;;3.38;1.70;;;17.60;59.70;;;;;;10414078;28;20537;-59
2022/02/14 01:23:42;;;;;;;2.20;1.40;;;17.60;59.60;;;;;;10412369;28;20037;-58
2022/02/14 01:28:43;;;;;;;2.00;1.40;;;17.70;59.50;;;;;;10412705;28;20099;-58
2022/02/14 01:33:44;;;;;;;3.30;1.60;;;17.70;59.50;;;;;;10415676;28;20048;-58
2022/02/14 01:38:44;;;;;;;2.63;1.55;;;17.70;59.40;;;;;;10412118;28;20039;-58
2022/02/14 01:43:45;;;;;;;2.45;1.60;;;17.70;59.50;;;;;;10395523;28;20037;-58
2022/02/14 01:48:46;;;;;;;2.75;1.35;;;17.60;59.50;;;;;;10395296;28;20086;-59
2022/02/14 01:53:49;;;;;;;2.97;1.55;;;17.70;59.50;;;;;;10411702;28;20034;-58
2022/02/14 01:58:49;;;;;;;1.95;1.30;;;17.60;59.40;;;;;;10411693;28;20034;-58
2022/02/14 02:03:51;;;;;;;2.55;1.75;;;17.60;59.40;;;;;;10411737;28;20462;-58
2022/02/14 02:08:53;;;;;;;2.45;1.60;;;17.70;59.50;;;;;;10411865;28;20036;-58
2022/02/14 02:13:53;;;;;;;2.65;1.35;;;17.70;59.50;;;;;;10411223;28;20026;-58
2022/02/14 02:18:54;;;;;;;1.73;1.13;;;17.60;59.40;;;;;;10412714;28;20036;-58
2022/02/14 02:23:57;;;;;;;2.33;1.30;;;17.60;59.40;;;;;;10412345;28;20068;-59
2022/02/14 02:28:58;;;;;;;3.22;1.45;;;17.60;59.30;;;;;;10411516;28;20442;-59
2022/02/14 02:33:59;;;;;;;3.10;1.60;;;17.60;59.30;;;;;;10415481;28;20087;-58
2022/02/14 02:39:00;;;;;;;2.47;1.35;;;17.70;59.30;;;;;;10412207;28;20108;-58
2022/02/14 02:44:00;;;;;;;2.33;1.15;;;17.60;59.20;;;;;;10410920;28;20525;-58
2022/02/14 02:49:20;;;;;;;3.40;1.63;;;17.60;59.20;;;;;;10394480;28;20029;-58
2022/02/14 02:54:23;;;;;;;1.83;1.13;;;17.70;59.20;;;;;;10394124;28;20159;-58
2022/02/14 02:59:27;;;;;;;3.17;1.55;;;17.60;59.20;;;;;;10427733;28;20037;-58
2022/02/14 03:04:28;;;;;;;1.50;1.05;;;17.60;59.10;;;;;;10417774;28;20032;-58
2022/02/14 03:09:29;;;;;;;3.15;1.40;;;17.70;59.20;;;;;;10417810;28;20037;-58
2022/02/14 03:14:29;;;;;;;2.35;1.45;;;17.60;59.10;;;;;;10418748;28;20030;-58
2022/02/14 03:19:30;;;;;;;2.95;1.88;;;17.70;59.20;;;;;;10418550;28;20029;-58
2022/02/14 03:24:31;;;;;;;2.33;1.20;;;17.60;59.10;;;;;;10417152;28;20116;-58
2022/02/14 03:29:32;;;;;;;2.60;1.20;;;17.60;59.00;;;;;;10416625;28;20030;-58
2022/02/14 03:34:32;;;;;;;3.10;1.30;;;17.70;59.00;;;;;;10441336;28;20037;-58
2022/02/14 03:39:33;;;;;;;1.65;1.23;;;17.60;59.00;;;;;;10417936;28;20043;-58
2022/02/14 03:44:34;;;;;;;2.92;1.73;;;17.70;59.00;;;;;;10416293;28;20041;-58
2022/02/14 03:49:34;;;;;;;2.30;1.30;;;17.60;58.90;;;;;;10417338;28;20045;-58
2022/02/14 03:54:35;;;;;;;2.10;1.20;;;17.70;58.90;;;;;;10416134;28;20128;-58
2022/02/14 03:59:36;;;;;;;1.75;0.93;;;17.60;58.90;;;;;;10417224;28;20041;-58
2022/02/14 04:04:37;;;;;;;1.83;1.20;;;17.70;58.90;;;;;;10411605;28;20061;-58
2022/02/14 04:09:37;;;;;;;2.92;1.20;;;17.70;58.90;;;;;;10431828;28;20504;-58
2022/02/14 04:14:39;;;;;;;1.95;1.20;;;17.70;58.80;;;;;;10415937;28;20370;-58
2022/02/14 04:19:40;;;;;;;2.05;1.13;;;17.70;58.80;;;;;;10431694;28;20398;-58
2022/02/14 04:24:40;;;;;;;2.00;1.13;;;17.70;58.80;;;;;;10415847;28;20034;-58
2022/02/14 04:29:41;;;;;;;2.25;1.05;;;17.70;58.70;;;;;;10414335;28;20520;-59
2022/02/14 04:34:42;;;;;;;2.35;1.20;;;17.70;58.70;;;;;;10417294;28;20033;-58
2022/02/14 04:39:44;;;;;;;1.70;1.05;;;17.70;58.70;;;;;;10430750;28;20025;-58
2022/02/14 04:44:44;;;;;;;2.03;0.95;;;17.70;58.70;;;;;;10430647;28;20033;-59
2022/02/14 04:49:45;;;;;;;3.03;1.02;;;17.70;58.70;;;;;;10413721;28;20034;-59
2022/02/14 04:54:46;;;;;;;2.75;1.58;;;17.70;58.60;;;;;;10413585;28;20539;-59
2022/02/14 04:59:46;;;;;;;2.40;1.45;;;17.70;58.50;;;;;;10429906;28;20104;-58
2022/02/14 05:04:47;;;;;;;1.52;1.20;;;17.70;58.50;;;;;;10413944;28;20037;-58
2022/02/14 05:09:48;;;;;;;1.58;1.17;;;17.60;58.50;;;;;;10430160;28;20359;-58
2022/02/14 05:14:49;;;;;;;2.17;1.05;;;17.70;58.50;;;;;;10429264;28;20041;-58
2022/02/14 05:19:49;;;;;;;2.30;1.08;;;17.70;58.60;;;;;;10414097;28;20021;-58
2022/02/14 05:24:50;;;;;;;3.83;1.10;;;17.60;58.60;;;;;;10395495;28;20397;-59
2022/02/14 05:29:51;;;;;;;3.00;1.30;;;17.70;58.60;;;;;;10413756;28;20490;-58
2022/02/14 05:34:51;;;;;;;1.17;0.80;;;17.70;58.60;;;;;;10415322;28;20112;-58
2022/02/14 05:39:52;;;;;;;1.65;0.73;;;17.70;59.20;;;;;;10428915;28;20529;-58
2022/02/14 05:44:53;;;;;;;1.30;0.70;;;17.70;58.50;;;;;;10424752;28;20029;-58
2022/02/14 05:49:54;;;;;;;1.75;1.05;;;17.70;58.40;;;;;;10395499;28;20061;-58
2022/02/14 05:54:55;;;;;;;4.00;1.98;;;17.70;58.40;;;;;;10392625;28;20438;-59
2022/02/14 05:59:56;;;;;;;4.63;1.60;;;17.70;58.80;;;;;;10411923;28;20155;-57
2022/02/14 06:04:56;;;;;;;3.67;1.10;;;17.70;59.20;;;;;;10411852;28;20478;-58
2022/02/14 06:09:58;;;;;;;4.63;1.15;;;17.80;59.40;;;;;;10392094;28;20409;-57
2022/02/14 06:15:00;;;;;;;3.78;1.35;;;17.80;60.10;;;;;;10427748;28;20175;-56
2022/02/14 06:20:01;;;;;;;4.93;1.42;;;17.90;60.50;;;;;;10422191;28;20045;-57
2022/02/14 06:25:02;;;;;;;4.85;1.40;;;17.90;60.70;;;;;;10387765;28;20070;-58
2022/02/14 06:30:05;;;;;;;6.80;1.58;;;17.80;60.90;;;;;;10413356;28;20375;-56
2022/02/14 06:35:06;;;;;;;5.35;1.35;;;17.80;60.40;;;;;;10396846;28;20033;-58
2022/02/14 06:40:07;;;;;;;6.20;1.73;;;17.80;60.40;;;;;;10426273;28;20033;-58
2022/02/14 06:45:08;;;;;;;6.43;1.80;;;17.80;60.90;;;;;;10415031;28;20040;-58
2022/02/14 06:50:10;;;;;;;7.95;1.75;;;17.80;61.30;;;;;;10422289;28;20021;-58
2022/02/14 06:55:12;;;;;;;9.35;1.58;;;17.80;61.70;;;;;;10411924;28;20029;-58
2022/02/14 07:00:14;;;;;;;11.93;2.00;;;17.80;61.60;;;;;;10412946;28;20021;-59
2022/02/14 07:05:16;;;;;;;6.95;1.77;;;17.80;61.50;;;;;;10411175;28;20040;-55
2022/02/14 07:10:17;;;;;;;5.70;2.28;;;17.70;61.30;;;;;;10412308;28;20259;-57
2022/02/14 07:15:18;;;;;;;3.83;1.70;;;17.60;61.20;;;;;;10412318;28;20171;-57
2022/02/14 07:20:20;;;;;;;10.77;1.45;;;17.60;61.10;;;;;;10408816;28;20036;-56
2022/02/14 07:25:20;;;;;;;6.00;1.45;;;17.50;61.00;;;;;;10394896;28;20022;-57
2022/02/14 07:30:21;;;;;;;7.05;1.73;;;17.40;61.00;;;;;;10414731;28;20081;-57
2022/02/14 07:35:22;;;;;;;3.50;1.50;;;17.40;61.10;;;;;;10439243;28;20044;-57
2022/02/14 07:40:23;;;;;;;6.47;1.48;;;17.40;61.10;;;;;;10453791;28;20028;-56
2022/02/14 07:45:23;;;;;;;7.30;2.00;;;17.40;61.10;;;;;;10421228;28;20108;-57
2022/02/14 07:50:25;;;;;;;10.90;2.30;;;17.30;60.90;;;;;;10397117;28;20035;-57
2022/02/14 07:55:26;;;;;;;6.20;1.85;;;17.40;61.40;;;;;;10396674;28;20025;-56
2022/02/14 08:00:27;;;;;;;6.45;2.00;;;17.50;61.70;;;;;;10401094;28;20036;-56
2022/02/14 08:05:28;;;;;;;8.95;2.13;;;17.60;61.60;;;;;;10392875;28;20030;-56
2022/02/14 08:10:28;;;;;;;12.38;1.98;;;17.60;61.40;;;;;;10419985;28;20037;-56
2022/02/14 08:15:29;;;;;;;7.97;2.40;;;17.70;61.20;;;;;;10387817;28;20037;-57
2022/02/14 08:20:30;;;;;;;9.43;1.90;;;17.70;61.70;;;;;;10395245;28;20108;-56
2022/02/14 08:25:31;;;;;;;8.18;2.47;;;17.60;61.90;;;;;;10411236;28;20026;-57
2022/02/14 08:30:32;;;;;;;11.63;2.30;;;17.60;62.70;;;;;;10409761;28;20045;-57
2022/02/14 08:35:32;;;;;;;8.65;1.35;;;17.60;62.60;;;;;;10413848;28;20465;-55
2022/02/14 08:40:34;;;;;;;6.57;1.80;;;17.50;62.50;;;;;;10410664;28;20025;-56
2022/02/14 08:45:34;;;;;;;6.78;1.80;;;17.60;62.80;;;;;;10408837;28;20049;-57
2022/02/14 08:50:38;;;;;;;13.85;3.08;;;17.60;62.60;;;;;;10420400;28;20037;-56
2022/02/14 08:55:39;;;;;;;6.07;1.25;;;17.60;62.60;;;;;;10411795;28;20030;-56
2022/02/14 09:00:40;;;;;;;5.97;1.88;;;17.60;62.50;;;;;;10411269;28;20063;-56
2022/02/14 09:05:41;;;;;;;7.97;1.50;;;17.60;62.30;;;;;;10402960;28;20042;-56
2022/02/14 09:10:42;;;;;;;5.28;1.77;;;;;;;;;;10391022;28;20087;-50
2022/02/14 09:15:43;;;;;;;5.88;1.63;;;17.60;61.80;;;;;;10371514;28;20501;-50
2022/02/14 09:20:44;;;;;;;10.88;1.55;;;17.60;62.20;;;;;;10369252;28;20043;-52
2022/02/14 09:25:44;;;;;;;6.47;1.85;;;17.60;62.10;;;;;;10375494;28;20022;-48
2022/02/14 09:30:45;;;;;;;5.47;1.58;;;17.50;62.30;;;;;;10413391;28;20124;-53
2022/02/14 09:35:47;;;;;;;4.82;1.40;;;17.50;62.30;;;;;;10443286;28;20023;-53
2022/02/14 09:40:47;;;;;;;5.90;1.30;;;17.40;62.40;;;;;;10470220;28;20466;-53
2022/02/14 09:45:48;;;;;;;13.45;1.90;;;17.50;62.70;;;;;;10416702;28;20105;-54
2022/02/14 09:50:49;;;;;;;9.73;2.10;;;17.50;63.40;;;;;;10412052;28;20033;-54
2022/02/14 09:55:50;;;;;;;9.45;2.25;;;17.50;63.60;;;;;;10402733;28;20046;-55
2022/02/14 10:00:51;;;;;;;12.45;2.50;;;17.40;63.80;;;;;;10371157;28;20029;-55
2022/02/14 10:05:57;;;;;;;6.95;1.38;;;17.50;63.70;;;;;;10370930;28;20029;-55
2022/02/14 10:11:14;;;;;;;6.18;1.45;;;17.50;63.80;;;;;;10374502;28;20466;-54
2022/02/14 10:16:15;;;;;;;9.23;1.77;;;17.40;63.90;;;;;;10377145;28;20030;-54
2022/02/14 10:21:27;;;;;;;5.82;1.13;;;17.40;63.80;;;;;;10378129;28;20041;-54
2022/02/14 10:26:36;;;;;;;5.35;1.17;;;17.40;63.80;;;;;;10378139;28;20088;-54
2022/02/14 10:31:46;;;;;;;7.50;1.38;;;17.50;63.80;;;;;;10378347;28;20077;-55
2022/02/14 10:36:49;;;;;;;5.93;1.67;;;17.50;63.90;;;;;;10455721;28;20031;-54
2022/02/14 10:42:06;;;;;;;5.57;1.40;;;17.50;63.80;;;;;;10471649;28;20021;-54
2022/02/14 10:47:11;;;;;;;3.25;1.23;;;17.50;63.90;;;;;;10419150;28;20072;-54
2022/02/14 10:52:13;;;;;;;4.80;1.00;;;17.40;63.90;;;;;;10419670;28;20042;-55
2022/02/14 10:57:25;;;;;;;5.30;1.20;;;17.40;64.10;;;;;;10401641;28;20041;-54
2022/02/14 11:02:27;;;;;;;9.40;1.38;;;17.40;64.20;;;;;;10396545;28;20034;-55
2022/02/14 11:07:28;;;;;;;5.40;1.30;;;17.40;64.40;;;;;;10418069;28;20375;-53
2022/02/14 11:12:34;;;;;;;6.75;1.40;;;17.40;64.00;;;;;;10416162;28;20033;-52
2022/02/14 11:17:43;;;;;;;4.40;1.48;;;17.40;63.80;;;;;;10417596;28;20032;-55
2022/02/14 11:22:49;;;;;;;3.70;1.10;;;17.50;63.70;;;;;;10415320;28;20477;-55
2022/02/14 11:28:12;;;;;;;4.45;1.02;;;17.50;63.60;;;;;;10400340;28;20115;-55
2022/02/14 11:33:14;;;;;;;2.85;1.30;;;17.40;64.50;;;;;;10424446;28;20123;-56
2022/02/14 11:38:15;;;;;;;4.22;1.35;;;17.40;64.80;;;;;;10456124;28;20033;-54
2022/02/14 11:43:25;;;;;;;5.03;1.13;;;17.40;65.00;;;;;;10438821;28;20481;-51
2022/02/14 11:48:27;;;;;;;3.58;1.17;;;17.40;65.30;;;;;;10414928;28;20055;-56
2022/02/14 11:53:36;;;;;;;5.40;1.30;;;17.40;65.00;;;;;;10415886;28;20029;-56
2022/02/14 11:59:10;;;;;;;5.57;1.00;;;17.40;64.00;;;;;;10416667;28;20044;-57
2022/02/14 12:04:39;;;;;;;3.03;0.63;;;17.40;64.10;;;;;;10416446;28;20034;-57
2022/02/14 12:10:01;;;;;;;6.68;1.25;;;17.30;64.00;;;;;;10415379;28;20040;-57
2022/02/14 12:20:35;;;;;;;6.03;1.15;;;17.30;63.90;;;;;;10415195;28;20475;-57
2022/02/14 12:25:47;;;;;;;6.25;1.20;;;17.30;64.00;;;;;;10413241;28;20448;-57
2022/02/14 12:30:48;;;;;;;3.55;0.90;;;17.20;64.00;;;;;;10415864;28;20053;-58
2022/02/14 12:35:57;;;;;;;3.45;0.95;;;17.20;64.00;;;;;;10444713;28;20366;-58
2022/02/14 12:41:10;;;;;;;5.53;1.30;;;17.20;64.00;;;;;;10455093;28;20036;-57
2022/02/14 12:46:18;;;;;;;2.67;0.90;;;17.20;64.00;;;;;;10412318;28;20072;-58
2022/02/14 12:51:32;;;;;;;4.75;1.10;;;17.10;63.90;;;;;;10411107;28;20053;-57
2022/02/14 12:56:36;;;;;;;2.15;0.90;;;17.10;63.90;;;;;;10412994;28;20084;-57
2022/02/14 13:01:43;;;;;;;4.28;1.27;;;17.10;64.60;;;;;;10428974;28;20029;-58
2022/02/14 13:06:53;;;;;;;5.57;1.13;;;17.10;64.00;;;;;;10414158;28;20171;-58
2022/02/14 13:12:22;;;;;;;3.25;1.02;;;17.10;63.90;;;;;;10412575;28;20029;-57
2022/02/14 13:17:26;;;;;;;2.42;1.05;;;17.20;63.80;;;;;;10412416;28;20505;-56
2022/02/14 13:22:30;;;;;;;2.45;0.90;;;17.10;63.60;;;;;;10412004;28;20025;-58
2022/02/14 13:27:34;;;;;;;10.90;1.40;;;17.20;63.70;;;;;;10413740;28;20105;-51
2022/02/14 13:32:40;;;;;;;10.95;1.77;;;17.20;63.60;;;;;;10400731;28;20390;-53
2022/02/14 13:37:58;;;;;;;9.98;1.48;;;17.20;63.20;;;;;;10453277;28;20082;-57
2022/02/14 13:43:07;;;;;;;5.25;2.03;;;17.10;64.00;;;;;;10438475;28;20064;-56
2022/02/14 13:48:34;;;;;;;;;;;17.10;63.20;;;;;;10409821;28;20374;-58
2022/02/14 13:53:38;;;;;;;12.73;1.60;;;17.10;63.80;;;;;;10427229;28;20384;-58
2022/02/14 13:58:48;;;;;;;13.80;2.63;;;17.10;63.50;;;;;;10411859;28;20498;-59
2022/02/14 14:04:18;;;;;;;17.63;2.45;;;17.10;64.20;;;;;;10412031;28;20033;-58
2022/02/14 14:09:24;;;;;;;13.00;2.47;;;17.10;64.60;;;;;;10404948;28;20041;-57
2022/02/14 14:14:31;;;;;;;23.52;3.33;;;17.20;64.70;;;;;;10413023;28;20533;-57
2022/02/14 14:19:49;;;;;;;12.52;3.42;;;17.30;64.70;;;;;;10411918;28;20565;-57
2022/02/14 14:24:53;;;;;;;19.90;4.20;;;17.30;64.50;;;;;;10411751;28;20035;-56
2022/02/14 14:29:54;;;;;;;12.57;2.50;;;17.20;64.30;;;;;;10409992;28;20033;-56
2022/02/14 14:34:56;;;;;;;12.52;2.88;;;17.20;64.30;;;;;;10431881;28;20040;-56
2022/02/14 14:39:57;;;;;;;12.07;1.85;;;17.10;64.20;;;;;;10448242;28;20083;-56
2022/02/14 14:45:00;;;;;;;15.13;3.17;;;17.10;64.10;;;;;;10417688;28;20035;-56
2022/02/14 14:50:00;;;;;;;10.75;2.47;;;17.00;64.60;;;;;;10408534;28;20030;-55
2022/02/14 14:55:01;;;;;;;7.90;1.90;;;17.10;64.50;;;;;;10410551;28;20029;-55
2022/02/14 15:00:04;;;;;;;8.63;1.70;;;17.00;64.60;;;;;;10416654;28;20029;-55
2022/02/14 15:05:06;;;;;;;11.80;1.77;;;17.10;64.30;;;;;;10417080;28;20142;-54
2022/02/14 15:10:07;;;;;;;7.70;1.85;;;17.20;63.90;;;;;;10416005;28;20502;-56
2022/02/14 15:15:09;;;;;;;8.50;1.85;;;17.40;63.30;;;;;;10417106;28;20033;-55
2022/02/14 15:20:10;;;;;;;7.03;2.00;;;17.40;63.00;;;;;;10415597;28;20026;-56
2022/02/14 15:25:11;;;;;;;4.28;1.90;;;17.40;63.00;;;;;;10415714;28;20511;-56
2022/02/14 15:30:12;;;;;;;7.07;1.50;;;17.40;63.10;;;;;;10416463;28;20490;-55
2022/02/14 15:35:12;;;;;;;7.65;1.52;;;17.40;63.00;;;;;;10441414;28;20036;-56
2022/02/14 15:40:13;;;;;;;6.97;1.42;;;17.40;62.70;;;;;;10456150;28;20025;-55
2022/02/14 15:45:14;;;;;;;5.57;1.40;;;17.50;62.60;;;;;;10422573;28;20484;-55
2022/02/14 15:50:15;;;;;;;4.13;1.13;;;17.40;62.60;;;;;;10414669;28;20500;-55
2022/02/14 15:55:16;;;;;;;5.82;1.13;;;17.40;62.80;;;;;;10415548;28;20033;-55
2022/02/14 16:00:17;;;;;;;2.67;1.00;;;17.40;62.90;;;;;;10414167;28;20028;-55
2022/02/14 16:05:17;;;;;;;4.25;1.02;;;17.40;62.70;;;;;;10415515;28;20088;-56
2022/02/14 16:10:18;;;;;;;6.13;1.25;;;17.40;62.40;;;;;;10413702;28;20091;-56
2022/02/14 16:15:19;;;;;;;7.07;1.63;;;17.40;62.50;;;;;;10414927;28;20037;-56
2022/02/14 16:20:20;;;;;;;12.60;2.30;;;17.50;63.30;;;;;;10408317;28;20025;-55
2022/02/14 16:25:21;;;;;;;13.93;1.40;;;17.40;63.50;;;;;;10413980;28;20044;-55
2022/02/14 16:30:22;;;;;;;8.85;1.30;;;17.50;64.10;;;;;;10411061;28;20051;-55
2022/02/14 16:35:23;;;;;;;12.65;1.80;;;17.60;64.00;;;;;;10423601;28;20091;-55
2022/02/14 16:40:24;;;;;;;6.75;1.77;;;17.60;64.10;;;;;;10413167;28;20510;-56
2022/02/14 16:45:25;;;;;;;6.13;1.73;;;17.50;64.50;;;;;;10420401;28;20078;-55
2022/02/14 16:50:25;;;;;;;5.47;1.85;;;17.50;65.00;;;;;;10399654;28;20120;-56
2022/02/14 16:55:26;;;;;;;9.85;1.63;;;17.50;65.00;;;;;;10421271;28;20152;-55
2022/02/14 17:00:27;;;;;;;6.90;1.88;;;17.50;65.50;;;;;;10414057;28;20017;-54
2022/02/14 17:05:29;;;;;;;14.63;2.45;;;17.50;64.60;;;;;;10413489;28;20038;-55
2022/02/14 17:10:29;;;;;;;10.88;1.85;;;17.60;67.20;;;;;;10407015;28;20573;-53
2022/02/14 17:15:30;;;;;;;8.50;1.85;;;17.70;66.80;;;;;;10396468;28;20040;-56
2022/02/14 17:20:31;;;;;;;12.18;1.90;;;17.90;66.60;;;;;;10411522;28;20155;-57
2022/02/14 17:25:32;;;;;;;7.28;2.38;;;17.80;66.50;;;;;;10428756;28;20477;-56
2022/02/14 17:30:33;;;;;;;10.95;2.05;;;17.80;66.40;;;;;;10413187;28;20139;-55
2022/02/14 17:35:34;;;;;;;5.93;1.50;;;17.80;66.50;;;;;;10421591;28;20041;-55
2022/02/14 17:40:37;;;;;;;8.88;1.58;;;17.70;66.40;;;;;;10409782;28;20018;-56
2022/02/14 17:45:37;;;;;;;11.50;1.77;;;17.70;66.90;;;;;;10410389;28;20040;-57
2022/02/14 17:50:38;;;;;;;11.32;2.00;;;17.70;67.10;;;;;;10390787;28;20137;-58
2022/02/14 17:55:39;;;;;;;26.80;5.00;;;17.70;67.10;;;;;;10409935;28;20029;-56
2022/02/14 18:00:40;;;;;;;12.68;2.63;;;17.60;67.30;;;;;;10411534;28;20104;-56
2022/02/14 18:05:40;;;;;;;13.20;2.65;;;17.50;68.10;;;;;;10412247;28;20047;-56
2022/02/14 18:10:41;;;;;;;6.28;1.67;;;17.50;67.90;;;;;;10411362;28;20432;-54
2022/02/14 18:15:42;;;;;;;5.55;1.40;;;17.40;67.80;;;;;;10397506;28;20540;-57
2022/02/14 18:20:43;;;;;;;10.73;2.15;;;17.30;67.70;;;;;;10396134;28;20048;-57
2022/02/14 18:25:44;;;;;;;11.50;2.45;;;17.30;67.80;;;;;;10413651;28;20030;-57
2022/02/14 18:30:45;;;;;;;13.98;2.47;;;17.20;67.70;;;;;;10420219;28;20481;-57
2022/02/14 18:35:45;;;;;;;10.32;2.10;;;17.20;68.00;;;;;;10406722;28;20040;-58
2022/02/14 18:40:46;;;;;;;13.80;2.45;;;17.30;68.10;;;;;;10412782;28;20021;-56
2022/02/14 18:45:47;;;;;;;6.43;1.55;;;17.30;67.90;;;;;;10409755;28;20109;-56
2022/02/14 18:50:48;;;;;;;8.65;1.40;;;17.30;68.00;;;;;;10406531;28;20421;-56
2022/02/14 18:55:49;;;;;;;11.32;2.08;;;17.30;67.90;;;;;;10415204;28;20018;-55
2022/02/14 19:00:49;;;;;;;6.85;1.63;;;17.20;67.90;;;;;;10407631;28;20030;-55
2022/02/14 19:05:50;;;;;;;7.38;1.73;;;17.30;68.00;;;;;;10410720;28;20686;-55
2022/02/14 19:10:52;;;;;;;5.88;1.60;;;17.40;67.80;;;;;;10414128;28;20029;-55
2022/02/14 19:15:53;;;;;;;9.30;2.00;;;17.40;67.70;;;;;;10411939;28;20377;-55
2022/02/14 19:20:54;;;;;;;5.90;1.60;;;17.40;67.60;;;;;;10403123;28;20025;-56
2022/02/14 19:25:55;;;;;;;12.68;1.70;;;17.50;67.60;;;;;;10416282;28;20033;-55
2022/02/14 19:30:57;;;;;;;3.75;1.40;;;17.40;67.60;;;;;;10400739;28;20121;-55
2022/02/14 19:35:58;;;;;;;8.48;1.55;;;17.40;67.70;;;;;;10414011;28;20390;-56
2022/02/14 19:40:58;;;;;;;6.20;2.10;;;17.50;67.60;;;;;;10430199;28;20116;-55
2022/02/14 19:45:59;;;;;;;4.95;1.42;;;17.40;67.60;;;;;;10389074;28;20117;-56
2022/02/14 19:51:04;;;;;;;5.70;1.30;;;17.40;67.50;;;;;;10407685;28;20079;-56
2022/02/14 19:56:07;;;;;;;3.95;1.38;;;17.50;67.30;;;;;;10414335;28;20069;-56
2022/02/14 20:01:09;;;;;;;3.47;0.90;;;17.40;67.30;;;;;;10406712;28;20563;-56
2022/02/14 20:06:13;;;;;;;5.80;1.52;;;17.50;67.20;;;;;;10414728;28;20042;-55
2022/02/14 20:11:14;;;;;;;6.43;1.10;;;17.50;67.10;;;;;;10393696;28;20394;-56
2022/02/14 20:16:14;;;;;;;5.68;1.10;;;17.50;67.10;;;;;;10412145;28;20036;-56
2022/02/14 20:21:15;;;;;;;4.82;1.33;;;17.50;66.90;;;;;;10393090;28;20033;-55
2022/02/14 20:26:17;;;;;;;5.05;1.25;;;17.50;66.90;;;;;;10412277;28;20037;-56
2022/02/14 20:31:18;;;;;;;6.22;1.25;;;17.50;66.80;;;;;;10411468;28;20768;-56
2022/02/14 20:36:19;;;;;;;2.85;0.88;;;17.50;66.70;;;;;;10421492;28;20029;-54
2022/02/14 20:41:20;;;;;;;3.70;0.80;;;17.50;66.70;;;;;;10413896;28;20548;-56
2022/02/14 20:46:21;;;;;;;3.20;1.00;;;17.60;66.60;;;;;;10414252;28;20040;-55
2022/02/14 20:51:22;;;;;;;1.88;0.55;;;17.50;66.50;;;;;;10412362;28;20041;-55
2022/02/14 20:56:26;;;;;;;2.10;0.80;;;17.50;66.60;;;;;;10411592;28;20080;-55
2022/02/14 21:01:26;;;;;;;3.78;1.05;;;17.50;67.20;;;;;;10414600;28;20025;-56
2022/02/14 21:06:27;;;;;;;2.78;0.70;;;17.60;67.00;;;;;;10410960;28;20128;-56
2022/02/14 21:11:29;;;;;;;4.80;1.00;;;17.50;66.30;;;;;;10413975;28;20037;-55
2022/02/14 21:16:29;;;;;;;3.47;0.80;;;17.50;66.40;;;;;;10406944;28;20118;-55
2022/02/14 21:21:31;;;;;;;2.90;0.95;;;17.50;66.50;;;;;;10414290;28;20586;-56
2022/02/14 21:26:32;;;;;;;2.15;0.85;;;17.50;66.30;;;;;;10411620;28;20041;-54
2022/02/14 21:31:32;;;;;;;4.03;0.68;;;17.60;66.10;;;;;;10411173;28;20642;-56
2022/02/14 21:36:33;;;;;;;3.13;0.93;;;17.60;66.00;;;;;;10416275;28;20116;-56
2022/02/14 21:41:34;;;;;;;2.20;0.95;;;17.60;65.90;;;;;;10412552;28;20030;-55
2022/02/14 21:46:35;;;;;;;3.40;0.77;;;17.50;66.00;;;;;;10411889;28;20128;-55
2022/02/14 21:51:38;;;;;;;3.53;0.60;;;17.60;66.00;;;;;;10413129;28;20037;-56
2022/02/14 21:56:39;;;;;;;3.45;0.90;;;17.60;66.40;;;;;;10412388;28;20606;-55
2022/02/14 22:01:40;;;;;;;2.40;0.80;;;17.60;65.80;;;;;;10411918;28;20025;-56
2022/02/14 22:11:59;;;;;;;2.47;0.57;;;17.60;65.80;;;;;;10414840;28;20124;-55
2022/02/14 22:17:00;;;;;;;1.83;0.68;;;17.60;65.80;;;;;;10420032;28;20041;-56
2022/02/14 22:22:01;;;;;;;2.13;0.85;;;17.60;65.70;;;;;;10436407;28;20101;-56
2022/02/14 22:27:03;;;;;;;1.13;0.70;;;17.60;65.60;;;;;;10425324;28;20129;-56
2022/02/14 22:32:04;;;;;;;1.25;0.65;;;17.60;65.70;;;;;;10422902;28;20092;-56
2022/02/14 22:37:05;;;;;;;2.75;0.68;;;17.60;65.40;;;;;;10419324;28;20083;-56
2022/02/14 22:42:07;;;;;;;2.47;0.65;;;17.60;65.50;;;;;;10418958;28;20065;-56
2022/02/14 22:47:09;;;;;;;4.07;1.05;;;17.60;65.50;;;;;;10435332;28;20482;-55
2022/02/14 22:52:12;;;;;;;1.88;0.63;;;17.60;65.30;;;;;;10419789;28;20037;-55
2022/02/14 22:57:13;;;;;;;2.53;0.80;;;17.60;65.20;;;;;;10419552;28;20036;-56
2022/02/14 23:18:11;;;;;;;2.00;0.70;;;17.60;64.90;;;;;;10409476;28;20041;-56
2022/02/14 23:23:12;;;;;;;1.65;0.63;;;17.60;65.00;;;;;;10412143;28;20030;-56
2022/02/14 23:28:13;;;;;;;1.30;0.50;;;17.70;65.00;;;;;;10412107;28;20029;-56
2022/02/14 23:33:13;;;;;;;1.27;0.50;;;17.70;64.80;;;;;;10418225;28;20053;-56
2022/02/14 23:38:15;;;;;;;1.30;0.60;;;17.60;64.80;;;;;;10416821;28;20037;-55
2022/02/14 23:43:16;;;;;;;1.25;0.47;;;17.60;64.70;;;;;;10416854;28;20029;-55
2022/02/14 23:48:18;;;;;;;1.23;0.55;;;17.60;64.60;;;;;;10417630;28;20446;-55
2022/02/14 23:53:19;;;;;;;2.05;0.43;;;17.60;64.70;;;;;;10389822;28;20025;-55
2022/02/14 23:58:20;;;;;;;1.98;0.47;;;17.60;64.60;;;;;;10416954;28;20061;-55
